Absecon Highlands, NJ

3:29 AM EST on December 04, 2016 (GMT -0500)
Tom's Smithville WX | | Change Station

Elev 12 ft 39.49 °N, 74.47 °W | Updated 13 seconds ago

Overcast
Overcast
41.2 °F
Feels Like 41 °F
N
2.2
Wind Variable Wind from West

Today
High -- | Low -- °F
--% Chance of Precip.
Yesterday
High -- | Low -- °F
Precip. -- in
Pressure 30.22 in
Visibility 10.0 miles
Clouds Overcast 4900 ft
Windchill 41 °F
Dew Point 30 °F
Humidity 65%
Rainfall 0.26 in
Snow Depth Not available.
7:02 AM 4:34 PM
Waxing Crescent, 21% visible
METAR KACY 040754Z 32007KT 10SM OVC049 07/M03 A3021 RMK AO2 SLP231 T00671028
Pressure 30.22 in
Visibility 10.0 miles
Clouds Overcast 4900 ft
Windchill 41 °F
Dew Point 30 °F
Humidity 65%
Rainfall 0.26 in
Snow Depth Not available.
7:02 AM 4:34 PM
Waxing Crescent, 21% visible
METAR KACY 040754Z 32007KT 10SM OVC049 07/M03 A3021 RMK AO2 SLP231 T00671028

10-Day Weather Forecast

Almanac

Astronomy

Dec. 04, 2016 Rise Set
Actual Time
Civil Twilight
Nautical Twilight
Astronomical Twilight
Moon
Length of Visible Light
Length of Day
Tomorrow will be .
, % of the Moon is Illuminated

Today's Extremes

State Highs State Lows

Community

WunderPhotos

Upload Photos

1,955,587 photos uploaded!

WunderBlog® & News

Nearby

Air Quality

  Air Quality AQ Index Pollutant
Not available.

Snow Depth

Station Depth Elevation

Earthquake Activity

City Distance Mag. Time & Date
Minimum magnitude displayed is 2.5.

Coastal Water Temperatures

Place Temperature

Stations

Nearby Weather Stations

Station Location Temp. Windchill Dew Point Humidity Wind Precip. Elev Updated Type
                   

Watches & Warnings

There are currently no watches in effect.